createdAt,value
2019-01-31T00:02:04.736Z,25.17
2019-01-31T00:04:52.674Z,21.40
2019-01-31T00:07:31.557Z,19.37
2019-01-31T00:10:17.899Z,20.17
2019-01-31T00:12:47.773Z,22.13
2019-01-31T00:15:17.622Z,22.67
2019-01-31T00:17:47.364Z,24.60
2019-01-31T00:20:29.169Z,27.43
2019-01-31T00:23:15.673Z,25.03
2019-01-31T00:25:51.498Z,25.00
2019-01-31T00:28:43.880Z,23.67
2019-01-31T00:31:30.298Z,23.97
2019-01-31T00:34:05.822Z,20.17
2019-01-31T00:36:47.438Z,25.30
2019-01-31T00:39:23.221Z,24.00
2019-01-31T00:42:08.282Z,27.10
2019-01-31T00:44:59.463Z,29.07
2019-01-31T00:47:38.037Z,29.07
2019-01-31T00:50:10.601Z,28.70
2019-01-31T00:52:46.409Z,27.93
2019-01-31T00:55:25.116Z,26.73
2019-01-31T00:58:24.263Z,33.43
2019-01-31T01:00:56.746Z,30.00
2019-01-31T01:03:29.270Z,35.27
2019-01-31T01:06:16.499Z,29.63
2019-01-31T01:08:55.350Z,32.10
2019-01-31T01:11:34.266Z,27.83
2019-01-31T01:14:09.898Z,28.30
2019-01-31T01:16:45.581Z,28.17
2019-01-31T01:19:33.567Z,32.10
2019-01-31T01:22:21.789Z,30.60
2019-01-31T01:25:14.371Z,32.67
2019-01-31T01:27:52.911Z,30.93
2019-01-31T01:30:40.851Z,33.17
2019-01-31T01:33:28.363Z,32.13
2019-01-31T01:35:58.181Z,37.60
2019-01-31T01:38:40.218Z,32.50
2019-01-31T01:41:16.054Z,33.03
2019-01-31T01:44:08.632Z,35.63
2019-01-31T01:46:53.580Z,33.43
2019-01-31T01:49:26.423Z,35.03
2019-01-31T01:52:07.738Z,38.93
2019-01-31T01:54:43.700Z,40.77
2019-01-31T01:57:38.943Z,68.67
2019-01-31T02:00:08.789Z,59.73
2019-01-31T02:02:41.511Z,69.53
2019-01-31T02:05:44.937Z,44.67
2019-01-31T02:08:17.513Z,46.73
2019-01-31T02:11:05.664Z,43.20
2019-01-31T02:13:44.380Z,39.43
2019-01-31T02:16:26.109Z,56.27
2019-01-31T02:18:58.650Z,51.13
2019-01-31T02:21:40.860Z,30.83
2019-01-31T02:24:13.364Z,38.43
2019-01-31T02:26:52.130Z,51.87
2019-01-31T02:29:27.801Z,33.80
2019-01-31T02:32:29.797Z,55.00
2019-01-31T02:35:17.800Z,60.57
2019-01-31T02:37:54.286Z,55.90
2019-01-31T02:40:26.791Z,34.47
2019-01-31T02:43:17.943Z,33.47
2019-01-31T02:46:02.847Z,42.03
2019-01-31T02:48:47.726Z,39.30
2019-01-31T02:51:53.331Z,38.63
2019-01-31T02:54:35.171Z,45.03
2019-01-31T02:57:11.171Z,44.63
2019-01-31T03:00:04.019Z,45.57
2019-01-31T03:02:54.617Z,41.77
2019-01-31T03:05:33.582Z,61.97
2019-01-31T03:08:15.455Z,54.27
2019-01-31T03:10:45.184Z,64.77
2019-01-31T03:13:15.061Z,52.60
2019-01-31T03:15:59.822Z,57.33
2019-01-31T03:18:32.601Z,47.17
2019-01-31T03:21:11.440Z,51.87
2019-01-31T03:23:49.610Z,47.33
2019-01-31T03:26:24.997Z,42.50
2019-01-31T03:28:57.684Z,65.73
2019-01-31T03:31:42.341Z,48.60
2019-01-31T03:34:21.127Z,49.47
2019-01-31T03:37:05.979Z,41.90
2019-01-31T03:39:38.696Z,39.40
2019-01-31T03:42:08.594Z,44.50
2019-01-31T03:44:44.615Z,45.40
2019-01-31T03:47:23.421Z,47.70
2019-01-31T03:49:58.961Z,48.10
2019-01-31T03:52:41.020Z,40.77
2019-01-31T03:55:16.857Z,47.87
2019-01-31T03:57:52.644Z,51.87
2019-01-31T04:00:34.524Z,40.07
2019-01-31T04:03:04.357Z,47.03
2019-01-31T04:05:42.567Z,55.60
2019-01-31T04:08:08.778Z,59.60
2019-01-31T04:10:37.000Z,45.00
2019-01-31T04:13:04.054Z,51.77
2019-01-31T04:15:30.477Z,50.73
2019-01-31T04:17:56.593Z,43.80
2019-01-31T04:20:22.719Z,45.73
2019-01-31T04:22:50.774Z,41.40
2019-01-31T04:25:16.954Z,49.57
2019-01-31T04:27:43.131Z,44.83
2019-01-31T04:30:12.453Z,45.00
2019-01-31T04:32:38.595Z,53.33
2019-01-31T04:35:07.347Z,45.83
2019-01-31T04:37:33.470Z,62.73
2019-01-31T04:39:59.626Z,45.37
2019-01-31T04:42:25.764Z,37.53
2019-01-31T04:44:51.860Z,45.57
2019-01-31T04:47:18.022Z,49.27
2019-01-31T04:49:44.269Z,41.43
2019-01-31T04:52:10.474Z,42.73
2019-01-31T04:54:36.582Z,37.97
2019-01-31T04:57:02.835Z,52.23
2019-01-31T04:59:29.075Z,40.50
2019-01-31T05:01:55.214Z,40.17
2019-01-31T05:04:21.364Z,60.63
2019-01-31T05:06:47.503Z,44.80
2019-01-31T05:09:13.623Z,45.87
2019-01-31T05:11:39.777Z,46.10
2019-01-31T05:14:05.974Z,44.63
2019-01-31T05:16:33.508Z,38.97
2019-01-31T05:18:59.746Z,39.03
2019-01-31T05:21:25.998Z,47.50
2019-01-31T05:23:52.144Z,35.70
2019-01-31T05:26:19.583Z,56.50
2019-01-31T05:28:45.702Z,42.47
2019-01-31T05:31:11.813Z,42.70
2019-01-31T05:33:37.986Z,54.23
2019-01-31T05:36:04.281Z,38.97
2019-01-31T05:38:30.393Z,47.13
2019-01-31T05:40:56.526Z,37.97
2019-01-31T05:43:22.655Z,38.70
2019-01-31T05:45:48.806Z,47.70
2019-01-31T05:48:14.936Z,44.37
2019-01-31T05:50:41.035Z,50.53
2019-01-31T05:53:07.186Z,53.87
2019-01-31T05:55:33.450Z,38.13
2019-01-31T05:57:59.582Z,37.53
2019-01-31T06:00:27.722Z,50.73
2019-01-31T06:02:53.901Z,52.97
2019-01-31T06:05:20.218Z,35.83
2019-01-31T06:07:46.430Z,52.83
2019-01-31T06:10:12.761Z,40.33
2019-01-31T06:12:38.764Z,38.53
2019-01-31T06:15:08.513Z,50.13
2019-01-31T06:17:34.625Z,48.50
2019-01-31T06:20:00.756Z,37.33
2019-01-31T06:22:26.900Z,71.93
2019-01-31T06:24:54.869Z,44.47
2019-01-31T06:27:21.029Z,53.63
2019-01-31T06:29:47.169Z,45.90
2019-01-31T06:32:13.365Z,57.07
2019-01-31T06:34:39.497Z,59.33
2019-01-31T06:37:05.652Z,64.33
2019-01-31T06:39:31.846Z,39.17
2019-01-31T06:41:57.994Z,79.93
2019-01-31T06:44:25.996Z,38.40
2019-01-31T06:46:52.298Z,37.93
2019-01-31T06:49:18.423Z,39.60
2019-01-31T06:51:45.203Z,39.57
2019-01-31T06:54:11.329Z,35.63
2019-01-31T06:56:39.864Z,46.63
2019-01-31T06:59:06.029Z,36.73
2019-01-31T07:01:32.188Z,35.93
2019-01-31T07:03:58.419Z,25.77
2019-01-31T07:06:24.666Z,33.97
2019-01-31T07:08:50.804Z,40.27
2019-01-31T07:11:16.970Z,34.53
2019-01-31T07:13:43.191Z,29.00
2019-01-31T07:16:09.681Z,27.67
2019-01-31T07:18:35.822Z,26.00
2019-01-31T07:21:02.055Z,27.30
2019-01-31T07:23:28.175Z,32.57
2019-01-31T07:25:54.406Z,26.33
2019-01-31T07:28:20.563Z,18.93
2019-01-31T07:30:46.754Z,26.13
2019-01-31T07:33:12.915Z,32.43
2019-01-31T07:35:39.049Z,22.47
2019-01-31T07:38:12.413Z,21.53
2019-01-31T07:40:46.648Z,21.07
2019-01-31T07:43:20.362Z,33.53
2019-01-31T07:45:54.075Z,19.17
2019-01-31T07:48:27.735Z,33.87
2019-01-31T07:51:03.576Z,24.67
2019-01-31T07:53:36.974Z,24.37
2019-01-31T07:56:10.796Z,31.23
2019-01-31T07:58:44.195Z,34.77
2019-01-31T08:01:18.045Z,30.70
2019-01-31T08:04:01.994Z,32.83
2019-01-31T08:06:26.357Z,34.63
2019-01-31T08:08:59.287Z,30.83
2019-01-31T08:11:35.579Z,28.47
2019-01-31T08:14:08.015Z,32.23
2019-01-31T08:16:40.695Z,35.23
2019-01-31T08:19:09.651Z,32.57
2019-01-31T08:21:41.143Z,41.73
2019-01-31T08:24:11.345Z,43.13
2019-01-31T08:26:45.065Z,44.57
2019-01-31T08:29:15.624Z,50.53
2019-01-31T08:31:42.867Z,43.07
2019-01-31T08:34:10.942Z,48.27
2019-01-31T08:36:38.297Z,53.23
2019-01-31T08:39:06.140Z,47.50
2019-01-31T08:41:34.097Z,42.27
2019-01-31T08:44:02.872Z,30.30
2019-01-31T08:46:32.904Z,33.03
2019-01-31T08:49:02.447Z,42.53
2019-01-31T08:51:31.321Z,30.20
2019-01-31T08:54:01.120Z,40.27
2019-01-31T08:56:31.273Z,35.67
2019-01-31T08:59:03.643Z,34.50
2019-01-31T09:01:32.329Z,30.50
2019-01-31T09:04:01.338Z,30.57
2019-01-31T09:06:32.180Z,28.80
2019-01-31T09:09:01.916Z,42.40
2019-01-31T09:11:33.313Z,25.23
2019-01-31T09:14:01.163Z,26.07
2019-01-31T09:16:29.338Z,21.23
2019-01-31T09:18:59.208Z,26.80
2019-01-31T09:21:31.272Z,36.23
2019-01-31T09:24:25.590Z,32.80
2019-01-31T09:27:07.091Z,26.90
2019-01-31T09:29:55.133Z,31.37
2019-01-31T09:32:40.433Z,30.27
2019-01-31T09:35:12.936Z,48.23
2019-01-31T09:37:59.678Z,25.23
2019-01-31T09:40:35.404Z,37.03
2019-01-31T09:43:14.421Z,34.87
2019-01-31T09:45:59.541Z,34.40
2019-01-31T09:48:38.515Z,33.47
2019-01-31T09:51:22.914Z,37.43
2019-01-31T09:54:03.881Z,42.33
2019-01-31T09:57:02.520Z,40.27
2019-01-31T09:59:41.080Z,32.90
2019-01-31T10:02:41.529Z,34.67
2019-01-31T10:05:14.034Z,37.10
2019-01-31T10:07:43.757Z,33.73
2019-01-31T10:10:22.683Z,33.70
2019-01-31T10:13:18.247Z,30.33
2019-01-31T10:15:53.391Z,26.50
2019-01-31T10:18:41.403Z,28.03
2019-01-31T10:21:17.385Z,23.17
2019-01-31T10:23:59.196Z,24.00
2019-01-31T10:26:38.039Z,23.03
2019-01-31T10:29:25.969Z,19.10
2019-01-31T10:32:16.422Z,29.13
2019-01-31T10:34:48.959Z,20.80
2019-01-31T10:37:21.624Z,23.43
2019-01-31T10:39:56.825Z,23.37
2019-01-31T10:42:35.388Z,24.10
2019-01-31T10:45:08.141Z,28.73
2019-01-31T10:47:59.066Z,21.10
2019-01-31T10:51:01.007Z,20.67
2019-01-31T10:53:54.934Z,18.20
2019-01-31T10:56:51.581Z,20.67
2019-01-31T10:59:33.594Z,16.97
2019-01-31T11:02:12.314Z,17.23
2019-01-31T11:05:04.639Z,17.57
2019-01-31T11:07:36.977Z,22.63
2019-01-31T11:10:09.478Z,21.40
2019-01-31T11:12:48.363Z,24.33
2019-01-31T11:15:40.447Z,19.73
2019-01-31T11:18:13.204Z,18.83
2019-01-31T11:21:07.575Z,21.87
2019-01-31T11:23:46.356Z,17.83
2019-01-31T11:26:18.932Z,18.37
2019-01-31T11:28:57.448Z,21.83
2019-01-31T11:31:30.173Z,18.83
2019-01-31T11:33:59.930Z,20.70
2019-01-31T11:36:29.791Z,20.07
2019-01-31T11:39:21.543Z,19.57
2019-01-31T11:42:06.218Z,19.87
2019-01-31T11:44:52.845Z,25.13
2019-01-31T11:47:28.661Z,24.87
2019-01-31T11:50:07.318Z,29.77
2019-01-31T11:52:46.019Z,31.57
2019-01-31T11:55:24.923Z,36.03
2019-01-31T11:58:00.730Z,38.37
2019-01-31T12:00:27.385Z,28.50
2019-01-31T12:02:55.012Z,25.23
2019-01-31T12:05:21.626Z,26.57
2019-01-31T12:07:47.728Z,22.27
2019-01-31T12:10:13.843Z,25.63
2019-01-31T12:12:40.014Z,27.93
2019-01-31T12:15:07.960Z,21.40
2019-01-31T12:17:34.109Z,17.90
2019-01-31T12:20:00.247Z,21.87
2019-01-31T12:22:26.357Z,24.80
2019-01-31T12:24:52.617Z,25.57
2019-01-31T12:27:18.831Z,23.07
2019-01-31T12:29:44.993Z,19.80
2019-01-31T12:32:11.094Z,20.93
2019-01-31T12:34:37.266Z,25.93
2019-01-31T12:37:03.398Z,19.23
2019-01-31T12:39:29.635Z,21.00
2019-01-31T12:41:55.843Z,20.33
2019-01-31T12:44:21.978Z,17.30
2019-01-31T12:46:48.118Z,16.13
2019-01-31T12:49:14.434Z,19.23
2019-01-31T12:51:40.614Z,19.87
2019-01-31T12:54:06.868Z,21.00
2019-01-31T12:56:33.104Z,27.10
2019-01-31T12:58:59.214Z,20.43
2019-01-31T13:01:25.381Z,21.83
2019-01-31T13:03:51.492Z,19.30
2019-01-31T13:06:17.893Z,17.43
2019-01-31T13:08:44.055Z,20.47
2019-01-31T13:11:10.283Z,17.47
2019-01-31T13:13:45.895Z,19.53
2019-01-31T13:16:04.567Z,16.17
2019-01-31T13:18:30.682Z,19.27
2019-01-31T13:20:56.799Z,19.00
2019-01-31T13:23:22.908Z,17.50
2019-01-31T13:25:49.103Z,14.83
2019-01-31T13:28:15.221Z,17.77
2019-01-31T13:30:42.423Z,15.77
2019-01-31T13:33:08.613Z,19.53
2019-01-31T13:35:34.847Z,22.27
2019-01-31T13:38:01.036Z,26.03
2019-01-31T13:40:27.179Z,20.27
2019-01-31T13:45:28.531Z,19.33
2019-01-31T13:47:57.963Z,20.30
2019-01-31T13:50:24.097Z,22.33
2019-01-31T13:52:50.291Z,21.03
2019-01-31T13:55:22.437Z,17.53
2019-01-31T13:57:48.589Z,21.70
2019-01-31T14:00:17.820Z,19.70
2019-01-31T14:02:44.094Z,23.33
2019-01-31T14:05:10.502Z,22.23
2019-01-31T14:07:36.719Z,23.97
2019-01-31T14:10:06.064Z,25.00
2019-01-31T14:12:32.214Z,25.70
2019-01-31T14:14:58.355Z,22.20
2019-01-31T14:17:24.515Z,32.53
2019-01-31T14:19:50.664Z,26.10
2019-01-31T14:22:16.789Z,29.37
2019-01-31T14:24:43.896Z,20.17
2019-01-31T14:27:10.159Z,23.33
2019-01-31T14:29:36.360Z,20.43
2019-01-31T14:32:02.470Z,24.30
2019-01-31T14:34:28.727Z,19.83
2019-01-31T14:36:54.859Z,23.40
2019-01-31T14:39:20.982Z,18.80
2019-01-31T14:41:47.124Z,23.57
2019-01-31T14:44:20.193Z,21.37
2019-01-31T14:46:41.354Z,18.73
2019-01-31T14:49:07.523Z,18.10
2019-01-31T14:51:33.661Z,21.53
2019-01-31T14:53:59.851Z,20.83
2019-01-31T14:56:25.947Z,18.83
2019-01-31T14:58:52.106Z,20.90
2019-01-31T15:01:18.211Z,19.63
2019-01-31T15:03:44.387Z,20.83
2019-01-31T15:06:10.507Z,20.13
2019-01-31T15:08:36.641Z,20.40
2019-01-31T15:11:02.780Z,22.70
2019-01-31T15:13:29.041Z,19.67
2019-01-31T15:15:55.293Z,18.23
2019-01-31T15:18:21.518Z,20.97
2019-01-31T15:20:47.787Z,17.90
2019-01-31T15:23:13.902Z,20.13
2019-01-31T15:25:40.148Z,18.30
2019-01-31T15:28:06.410Z,16.47
2019-01-31T15:30:34.226Z,20.10
2019-01-31T15:33:01.499Z,20.10
2019-01-31T15:35:27.827Z,25.70
2019-01-31T15:37:54.043Z,28.87
2019-01-31T15:40:29.937Z,24.87
2019-01-31T15:42:56.087Z,29.30
2019-01-31T15:45:22.357Z,32.07
2019-01-31T15:47:48.618Z,22.27
2019-01-31T15:50:16.769Z,22.27
2019-01-31T15:52:43.811Z,24.17
2019-01-31T15:55:16.208Z,19.83
2019-01-31T15:57:42.391Z,20.30
2019-01-31T16:00:23.304Z,23.80
2019-01-31T16:02:49.418Z,23.60
2019-01-31T16:05:19.014Z,21.20
2019-01-31T16:07:43.632Z,27.73
2019-01-31T16:10:09.973Z,22.33
2019-01-31T16:12:36.251Z,19.10
2019-01-31T16:15:05.357Z,19.93
2019-01-31T16:17:31.470Z,23.37
2019-01-31T16:19:57.596Z,20.97
2019-01-31T16:22:23.877Z,27.00
2019-01-31T16:24:50.105Z,21.40
2019-01-31T16:27:16.341Z,21.27
2019-01-31T16:29:42.471Z,20.30
2019-01-31T16:34:37.600Z,27.90
2019-01-31T16:37:03.728Z,16.87
2019-01-31T16:39:29.862Z,22.63
2019-01-31T16:41:56.158Z,21.80
2019-01-31T16:44:22.596Z,18.00
2019-01-31T16:46:48.838Z,22.73
2019-01-31T16:49:15.125Z,23.43
2019-01-31T16:51:45.396Z,21.13
2019-01-31T16:54:12.871Z,17.90
2019-01-31T16:56:39.947Z,22.93
2019-01-31T16:59:06.097Z,50.87
2019-01-31T17:01:32.341Z,48.27
2019-01-31T17:04:00.311Z,30.07
2019-01-31T17:08:58.885Z,20.50
2019-01-31T17:11:25.097Z,20.67
2019-01-31T17:13:51.216Z,23.43
2019-01-31T17:16:17.515Z,19.17
2019-01-31T17:18:43.646Z,28.87
2019-01-31T17:21:09.896Z,21.77
2019-01-31T17:23:36.028Z,22.40
2019-01-31T17:26:02.270Z,23.40
2019-01-31T17:28:28.474Z,24.97
2019-01-31T17:30:54.745Z,25.53
2019-01-31T17:33:21.149Z,26.80
2019-01-31T17:35:47.389Z,30.87
2019-01-31T17:38:13.857Z,29.50
2019-01-31T17:40:42.234Z,30.70
2019-01-31T17:43:10.168Z,26.90
2019-01-31T17:45:36.387Z,26.40
2019-01-31T17:48:03.005Z,24.10
2019-01-31T17:50:29.263Z,31.27
2019-01-31T17:52:55.456Z,29.47
2019-01-31T17:55:26.333Z,29.50
2019-01-31T17:57:52.525Z,27.60
2019-01-31T18:00:29.196Z,26.60
2019-01-31T18:02:55.375Z,29.17
2019-01-31T18:05:21.508Z,25.03
2019-01-31T18:07:47.780Z,29.57
2019-01-31T18:10:17.086Z,27.17
2019-01-31T18:12:43.266Z,26.57
2019-01-31T18:15:10.535Z,29.87
2019-01-31T18:17:36.801Z,32.73
2019-01-31T18:20:06.682Z,34.03
2019-01-31T18:22:33.112Z,31.00
2019-01-31T18:24:59.281Z,29.60
2019-01-31T18:27:25.435Z,30.97
2019-01-31T18:29:51.499Z,27.93
2019-01-31T18:32:17.640Z,29.13
2019-01-31T18:34:43.769Z,27.50
2019-01-31T18:37:09.941Z,32.40
2019-01-31T18:39:36.023Z,41.27
2019-01-31T18:42:02.228Z,34.37
2019-01-31T18:44:28.386Z,35.17
2019-01-31T18:46:54.594Z,39.00
2019-01-31T18:49:20.752Z,33.80
2019-01-31T18:51:46.900Z,32.97
2019-01-31T18:54:14.973Z,35.33
2019-01-31T18:56:41.256Z,36.90
2019-01-31T18:59:07.445Z,32.93
2019-01-31T19:01:33.587Z,38.23
2019-01-31T19:03:59.685Z,34.40
2019-01-31T19:06:25.839Z,35.47
2019-01-31T19:08:52.054Z,37.00
2019-01-31T19:11:18.193Z,33.27
2019-01-31T19:13:44.345Z,34.57
2019-01-31T19:16:10.426Z,33.97
2019-01-31T19:18:38.157Z,37.13
2019-01-31T19:21:04.395Z,37.07
2019-01-31T19:23:30.505Z,37.40
2019-01-31T19:25:56.781Z,37.03
2019-01-31T19:28:23.020Z,33.87
2019-01-31T19:30:49.197Z,36.00
2019-01-31T19:33:15.434Z,41.03
2019-01-31T19:35:41.558Z,39.63
2019-01-31T19:38:08.134Z,41.53
2019-01-31T19:40:36.583Z,35.40
2019-01-31T19:43:03.422Z,39.10
2019-01-31T19:45:34.779Z,38.00
2019-01-31T19:48:05.263Z,36.43
2019-01-31T19:50:30.999Z,38.27
2019-01-31T19:52:57.244Z,33.70
2019-01-31T19:55:23.503Z,33.30
2019-01-31T19:57:49.660Z,33.73
2019-01-31T20:00:20.906Z,37.07
2019-01-31T20:02:47.010Z,29.40
2019-01-31T20:05:13.812Z,32.20
2019-01-31T20:07:40.259Z,33.13
2019-01-31T20:10:10.375Z,30.47
2019-01-31T20:12:36.533Z,34.10
2019-01-31T20:15:06.366Z,30.60
2019-01-31T20:17:32.941Z,29.03
2019-01-31T20:19:59.059Z,31.90
2019-01-31T20:22:25.217Z,32.17
2019-01-31T20:24:51.852Z,30.27
2019-01-31T20:27:18.174Z,30.73
2019-01-31T20:29:44.328Z,27.23
2019-01-31T20:32:10.561Z,26.93
2019-01-31T20:34:37.955Z,25.57
2019-01-31T20:37:04.186Z,23.37
2019-01-31T20:39:30.447Z,29.17
2019-01-31T20:41:56.604Z,22.73
2019-01-31T20:44:22.806Z,35.37
2019-01-31T20:46:49.037Z,26.37
2019-01-31T20:49:16.002Z,25.17
2019-01-31T20:51:42.147Z,23.60
2019-01-31T20:54:08.402Z,28.37
2019-01-31T20:56:34.553Z,28.23
2019-01-31T20:59:00.640Z,29.73
2019-01-31T21:01:26.894Z,25.77
2019-01-31T21:03:53.122Z,25.93
2019-01-31T21:06:19.356Z,30.03
2019-01-31T21:08:45.648Z,23.97
2019-01-31T21:11:11.795Z,22.57
2019-01-31T21:13:37.922Z,20.80
2019-01-31T21:16:04.162Z,26.70
2019-01-31T21:18:33.156Z,25.67
2019-01-31T21:20:59.426Z,23.53
2019-01-31T21:23:25.631Z,25.57
2019-01-31T21:25:51.746Z,25.13
2019-01-31T21:28:17.927Z,25.90
2019-01-31T21:30:44.054Z,22.90
2019-01-31T21:33:10.297Z,24.83
2019-01-31T21:35:36.841Z,21.20
2019-01-31T21:38:03.175Z,22.37
2019-01-31T21:40:32.061Z,23.17
2019-01-31T21:42:59.974Z,23.13
2019-01-31T21:45:26.371Z,23.67
2019-01-31T21:47:52.513Z,25.00
2019-01-31T21:50:27.725Z,21.63
2019-01-31T21:52:54.175Z,24.10
2019-01-31T21:55:20.373Z,24.90
2019-01-31T21:57:46.822Z,21.50
2019-01-31T22:00:18.926Z,22.47
2019-01-31T22:02:45.041Z,23.10
2019-01-31T22:05:13.487Z,21.70
2019-01-31T22:07:39.829Z,22.07
2019-01-31T22:10:08.828Z,21.93
2019-01-31T22:12:35.201Z,22.00
2019-01-31T22:15:01.324Z,23.67
2019-01-31T22:17:27.446Z,18.00
2019-01-31T22:19:53.606Z,20.27
2019-01-31T22:22:21.529Z,20.57
2019-01-31T22:24:47.783Z,21.97
2019-01-31T22:27:14.001Z,19.37
2019-01-31T22:29:40.594Z,22.03
2019-01-31T22:32:07.034Z,23.43
2019-01-31T22:34:33.276Z,23.77
2019-01-31T22:36:59.531Z,23.30
2019-01-31T22:39:25.842Z,26.77
2019-01-31T22:41:52.220Z,20.43
2019-01-31T22:44:18.589Z,22.30
2019-01-31T22:46:44.939Z,23.13
2019-01-31T22:49:11.405Z,23.40
2019-01-31T22:51:37.839Z,19.63
2019-01-31T22:54:06.012Z,19.03
2019-01-31T22:56:32.466Z,22.60
2019-01-31T22:58:58.743Z,21.07
2019-01-31T23:01:27.405Z,21.70
2019-01-31T23:03:53.604Z,22.67
2019-01-31T23:06:19.759Z,20.53
2019-01-31T23:08:45.847Z,25.53
2019-01-31T23:11:12.091Z,20.43
2019-01-31T23:13:38.301Z,20.43
2019-01-31T23:16:04.632Z,22.27
2019-01-31T23:18:30.766Z,28.73
2019-01-31T23:20:57.213Z,21.87
2019-01-31T23:23:23.257Z,22.10
2019-01-31T23:25:49.380Z,25.73
2019-01-31T23:28:15.477Z,19.53
2019-01-31T23:30:42.053Z,21.17
2019-01-31T23:33:08.208Z,22.03
2019-01-31T23:35:34.478Z,21.00
2019-01-31T23:38:01.004Z,22.97
2019-01-31T23:40:27.248Z,21.43
2019-01-31T23:42:53.341Z,21.17
2019-01-31T23:45:19.559Z,23.63
2019-01-31T23:47:48.964Z,20.87
2019-01-31T23:50:13.977Z,22.10
2019-01-31T23:52:40.331Z,23.20
2019-01-31T23:55:09.579Z,22.87
2019-01-31T23:57:35.738Z,25.33
